Time;durP1;ratioP1;P1;durP2;ratioP2;P2;SDS_P1;SDS_P2;PMS_P1;PMS_P2;Temp;Humidity;BMP_temperature;BMP_pressure;BME280_temperature;BME280_humidity;BME280_pressure;Samples;Min_cycle;Max_cycle;Signal;HPM_P1;HPM_P2
2022/06/06 00:02:18;;;;;;;21.83;18.75;;;15.70;99.90;;;;;;6250302;28;20052;-59
2022/06/06 00:05:20;;;;;;;20.15;17.90;;;15.80;99.90;;;;;;6238949;28;20060;-58
2022/06/06 00:08:22;;;;;;;21.88;17.48;;;15.70;99.90;;;;;;6225559;28;20413;-59
2022/06/06 00:11:25;;;;;;;19.55;17.52;;;15.70;99.90;;;;;;6224341;28;20076;-59
2022/06/06 00:14:27;;;;;;;21.38;17.67;;;15.70;99.90;;;;;;6242667;28;20041;-59
2022/06/06 00:17:29;;;;;;;22.52;18.48;;;15.70;99.90;;;;;;6249628;28;20046;-59
2022/06/06 00:20:32;;;;;;;21.67;17.95;;;15.70;99.90;;;;;;6249475;28;20045;-59
2022/06/06 00:23:34;;;;;;;21.42;18.70;;;15.80;99.90;;;;;;6250060;28;20046;-58
2022/06/06 00:26:37;;;;;;;22.02;18.58;;;15.80;99.90;;;;;;6249725;28;20052;-59
2022/06/06 00:29:39;;;;;;;23.40;18.75;;;15.90;99.90;;;;;;6244343;28;20491;-59
2022/06/06 00:36:01;;;;;;;24.27;19.60;;;15.90;99.90;;;;;;6236639;28;20060;-59
2022/06/06 00:39:03;;;;;;;8.82;7.50;;;15.90;99.90;;;;;;6248400;28;20050;-58
2022/06/06 00:42:14;;;;;;;20.92;18.00;;;15.90;99.90;;;;;;6248477;28;20379;-60
2022/06/06 00:45:32;;;;;;;24.95;19.42;;;16.00;99.90;;;;;;6249027;28;20060;-60
2022/06/06 00:48:38;;;;;;;28.55;20.45;;;16.00;99.90;;;;;;6248296;28;20056;-59
2022/06/06 00:51:40;;;;;;;8.90;8.13;;;16.00;99.90;;;;;;6249032;28;20053;-59
2022/06/06 00:54:44;;;;;;;7.72;6.82;;;16.00;99.90;;;;;;6247919;28;20045;-59
2022/06/06 00:57:51;;;;;;;6.32;5.63;;;16.20;99.90;;;;;;6248507;28;20053;-59
2022/06/06 01:00:53;;;;;;;7.53;5.70;;;16.30;99.90;;;;;;6249018;28;20045;-59
2022/06/06 01:03:57;;;;;;;7.47;6.80;;;16.50;99.90;;;;;;6247706;28;20046;-59
2022/06/06 01:06:59;;;;;;;5.10;4.70;;;16.70;99.90;;;;;;6249320;28;20297;-59
2022/06/06 01:10:02;;;;;;;6.88;5.32;;;17.10;99.90;;;;;;6248972;28;20045;-60
2022/06/06 01:13:09;;;;;;;9.63;8.70;;;17.40;99.90;;;;;;6247925;28;20054;-59
2022/06/06 01:16:28;;;;;;;4.40;4.05;;;17.60;99.90;;;;;;6248619;28;20097;-59
2022/06/06 01:20:07;;;;;;;5.53;4.97;;;17.80;99.90;;;;;;6247012;28;20052;-59
2022/06/06 01:23:35;;;;;;;4.63;4.22;;;18.20;99.90;;;;;;6222913;28;20049;-59
2022/06/06 01:26:53;;;;;;;5.05;4.55;;;18.40;99.90;;;;;;6223687;28;20380;-59
2022/06/06 01:30:01;;;;;;;5.30;4.05;;;18.40;99.90;;;;;;6222086;28;20057;-59
2022/06/06 01:33:03;;;;;;;4.95;4.45;;;18.40;99.90;;;;;;6223727;28;20046;-59
2022/06/06 01:36:05;;;;;;;3.77;3.47;;;18.40;99.90;;;;;;6224803;28;20477;-59
2022/06/06 01:39:10;;;;;;;3.70;3.40;;;18.30;99.90;;;;;;6240396;28;20489;-59
2022/06/06 01:42:16;;;;;;;4.50;3.67;;;18.40;99.90;;;;;;6247107;28;20508;-59
2022/06/06 01:45:27;;;;;;;5.95;3.85;;;18.50;99.90;;;;;;6247572;28;20428;-59
2022/06/06 01:48:35;;;;;;;3.40;3.10;;;18.50;99.90;;;;;;6246458;28;20049;-59
2022/06/06 01:51:37;;;;;;;4.10;3.70;;;18.50;99.90;;;;;;6246903;28;20057;-59
2022/06/06 01:54:39;;;;;;;4.03;3.40;;;18.50;99.90;;;;;;6247560;28;20046;-59
2022/06/06 01:57:41;;;;;;;5.60;3.55;;;18.50;99.90;;;;;;6246377;28;20054;-59
2022/06/06 02:00:45;;;;;;;3.50;3.20;;;18.60;99.90;;;;;;6247609;28;20045;-59
2022/06/06 02:03:47;;;;;;;3.25;2.95;;;18.50;99.90;;;;;;6246323;28;20107;-59
2022/06/06 02:06:51;;;;;;;4.53;4.13;;;18.50;99.90;;;;;;6247322;28;20056;-59
2022/06/06 02:09:53;;;;;;;;;;;18.50;99.90;;;;;;6246769;28;20049;-59
2022/06/06 02:12:55;;;;;;;3.42;3.13;;;18.50;99.90;;;;;;6245649;28;19959;-59
2022/06/06 02:16:00;;;;;;;3.60;3.30;;;18.60;99.90;;;;;;6247638;28;20053;-60
2022/06/06 02:19:02;;;;;;;2.60;2.40;;;18.60;99.90;;;;;;6247001;28;20521;-59
2022/06/06 02:22:04;;;;;;;3.08;2.78;;;18.60;99.90;;;;;;6246071;28;20402;-59
2022/06/06 02:25:08;;;;;;;2.67;2.47;;;18.60;99.90;;;;;;6246981;28;20049;-59
2022/06/06 02:28:10;;;;;;;3.25;2.70;;;18.50;99.90;;;;;;6246105;28;20045;-59
2022/06/06 02:31:13;;;;;;;2.40;2.20;;;18.40;99.90;;;;;;6222646;28;20280;-60
2022/06/06 02:34:15;;;;;;;2.85;2.60;;;18.50;99.90;;;;;;6242026;28;20045;-59
2022/06/06 02:37:17;;;;;;;2.30;2.13;;;18.50;99.90;;;;;;6246781;28;20053;-59
2022/06/06 02:40:21;;;;;;;2.25;2.05;;;18.50;99.90;;;;;;6245999;28;20049;-59
2022/06/06 02:43:23;;;;;;;3.25;2.47;;;18.60;99.90;;;;;;6246622;28;20077;-59
2022/06/06 02:46:26;;;;;;;2.85;2.45;;;18.60;99.90;;;;;;6245859;28;20489;-60
2022/06/06 02:49:29;;;;;;;2.15;2.05;;;18.70;99.90;;;;;;6247300;28;20041;-59
2022/06/06 02:52:33;;;;;;;2.50;2.30;;;18.70;99.90;;;;;;6223802;28;20125;-60
2022/06/06 02:55:36;;;;;;;2.40;2.17;;;18.70;99.90;;;;;;6221355;28;20093;-59
2022/06/06 02:58:38;;;;;;;2.20;2.00;;;18.70;99.90;;;;;;6221675;28;20058;-59
2022/06/06 03:01:41;;;;;;;2.63;2.42;;;18.80;99.90;;;;;;6222015;28;20054;-60
2022/06/06 03:04:43;;;;;;;2.78;2.30;;;19.00;99.90;;;;;;6245024;28;20053;-59
2022/06/06 03:07:59;;;;;;;2.10;1.70;;;19.00;99.90;;;;;;6245587;28;20049;-59
2022/06/06 03:11:13;;;;;;;1.75;1.65;;;18.90;99.90;;;;;;6246263;28;20084;-59
2022/06/06 03:14:37;;;;;;;2.85;1.90;;;18.90;99.90;;;;;;6246462;28;20046;-59
2022/06/06 03:21:26;;;;;;;2.88;2.53;;;18.80;99.90;;;;;;6226445;28;20050;-59
2022/06/06 03:24:37;;;;;;;2.53;1.92;;;18.90;99.90;;;;;;6221857;28;20595;-59
2022/06/06 03:27:48;;;;;;;1.70;1.52;;;18.90;99.90;;;;;;6220904;28;20053;-60
2022/06/06 03:31:01;;;;;;;2.92;2.20;;;18.90;99.90;;;;;;6232409;28;20129;-59
2022/06/06 03:34:13;;;;;;;2.80;2.10;;;18.80;99.90;;;;;;6239748;28;20579;-59
2022/06/06 03:37:27;;;;;;;1.98;1.70;;;18.70;99.90;;;;;;6235962;28;20050;-59
2022/06/06 03:40:42;;;;;;;2.97;2.78;;;18.70;99.90;;;;;;6220777;28;20054;-59
2022/06/06 03:43:54;;;;;;;1.83;1.60;;;18.70;99.90;;;;;;6221907;28;20049;-59
2022/06/06 03:47:04;;;;;;;2.22;1.60;;;18.70;99.90;;;;;;6221514;28;20169;-59
2022/06/06 03:50:23;;;;;;;1.88;1.77;;;18.80;99.90;;;;;;6223259;28;20161;-59
2022/06/06 03:53:41;;;;;;;2.47;2.17;;;18.70;99.90;;;;;;6245912;28;20494;-59
2022/06/06 03:56:55;;;;;;;2.50;2.05;;;18.60;99.90;;;;;;6250281;28;20056;-59
2022/06/06 03:59:58;;;;;;;;;;;18.60;99.90;;;;;;6251051;28;20056;-60
2022/06/06 04:03:01;;;;;;;1.95;1.75;;;18.60;99.90;;;;;;6249990;28;19921;-59
2022/06/06 04:06:05;;;;;;;2.95;1.90;;;18.60;99.90;;;;;;6250568;28;20056;-59
2022/06/06 04:09:07;;;;;;;1.63;1.50;;;18.60;99.90;;;;;;6248688;28;20055;-59
2022/06/06 04:12:47;;;;;;;1.83;1.73;;;18.60;99.90;;;;;;6233280;28;20050;-60
2022/06/06 04:16:05;;;;;;;2.20;1.60;;;18.40;99.90;;;;;;6225852;28;20046;-59
2022/06/06 04:19:16;;;;;;;1.52;1.35;;;18.50;99.90;;;;;;6224364;28;20414;-59
2022/06/06 04:22:27;;;;;;;2.10;1.77;;;18.40;99.90;;;;;;6239360;28;20053;-59
2022/06/06 04:25:40;;;;;;;1.80;1.60;;;18.50;99.90;;;;;;6248549;28;20056;-59
2022/06/06 04:28:52;;;;;;;1.40;1.25;;;18.60;99.90;;;;;;6234981;28;20053;-60
2022/06/06 04:32:04;;;;;;;1.85;1.70;;;18.40;99.90;;;;;;6248134;28;20057;-60
2022/06/06 04:35:13;;;;;;;2.42;2.22;;;18.40;99.90;;;;;;6249630;28;20513;-60
2022/06/06 04:38:23;;;;;;;3.30;2.97;;;18.40;99.90;;;;;;6247620;28;20493;-59
2022/06/06 04:41:32;;;;;;;3.80;2.72;;;18.50;99.90;;;;;;6249409;28;20073;-59
2022/06/06 04:44:49;;;;;;;3.00;2.22;;;18.50;99.90;;;;;;6244787;28;20049;-59
2022/06/06 04:47:52;;;;;;;3.17;2.85;;;18.30;99.90;;;;;;6223422;28;20057;-59
2022/06/06 04:50:55;;;;;;;2.47;2.20;;;18.30;99.90;;;;;;6233133;28;20049;-60
2022/06/06 04:53:58;;;;;;;;;;;18.30;99.90;;;;;;6250383;28;20161;-59
2022/06/06 04:57:01;;;;;;;1.70;1.60;;;18.30;99.90;;;;;;6247150;28;19928;-58
2022/06/06 05:00:05;;;;;;;3.83;2.85;;;18.50;99.90;;;;;;6242438;28;20045;-59
2022/06/06 05:03:07;;;;;;;3.88;3.10;;;18.60;99.90;;;;;;6224674;28;20061;-60
2022/06/06 05:06:23;;;;;;;2.50;2.10;;;18.60;99.90;;;;;;6223321;28;20046;-59
2022/06/06 05:09:58;;;;;;;4.00;2.83;;;18.80;99.90;;;;;;6222733;28;20064;-60
2022/06/06 05:13:33;;;;;;;3.08;2.15;;;18.70;99.90;;;;;;6224431;28;20049;-59
2022/06/06 05:16:51;;;;;;;2.13;1.90;;;18.60;99.90;;;;;;6222809;28;20176;-59
2022/06/06 05:20:09;;;;;;;3.38;2.50;;;18.60;99.90;;;;;;6224743;28;20049;-59
2022/06/06 05:23:32;;;;;;;3.97;3.00;;;18.50;99.90;;;;;;6244249;28;20056;-59
2022/06/06 05:26:45;;;;;;;4.15;2.05;;;18.50;99.90;;;;;;6248075;28;20056;-60
2022/06/06 05:30:02;;;;;;;;;;;18.70;99.90;;;;;;6248709;28;20041;-60
2022/06/06 05:33:12;;;;;;;4.28;3.10;;;18.60;99.90;;;;;;6248297;28;20396;-59
2022/06/06 05:36:41;;;;;;;2.88;2.22;;;18.70;99.90;;;;;;6247242;28;20049;-59
2022/06/06 05:40:00;;;;;;;5.25;4.47;;;18.70;99.90;;;;;;6247117;28;20493;-59
2022/06/06 05:43:22;;;;;;;3.40;2.33;;;18.80;99.90;;;;;;6246590;28;20056;-59
2022/06/06 05:46:39;;;;;;;3.38;2.40;;;19.00;99.90;;;;;;6248109;28;20512;-59
2022/06/06 05:49:54;;;;;;;8.27;5.35;;;18.90;99.90;;;;;;6247880;28;20055;-59
2022/06/06 05:53:14;;;;;;;3.92;2.83;;;18.90;99.90;;;;;;6240213;28;20414;-60
2022/06/06 05:56:34;;;;;;;3.75;3.17;;;18.80;99.90;;;;;;6222167;28;20046;-59
2022/06/06 06:00:05;;;;;;;4.28;3.38;;;18.70;99.90;;;;;;6236962;28;20059;-59
2022/06/06 06:03:40;;;;;;;6.68;5.03;;;19.00;99.90;;;;;;6246191;28;20121;-60
2022/06/06 06:06:48;;;;;;;;;;;18.90;99.90;;;;;;6246623;28;20053;-59
2022/06/06 06:10:02;;;;;;;4.20;3.53;;;18.90;99.90;;;;;;6245620;28;20369;-59
2022/06/06 06:13:26;;;;;;;8.93;6.55;;;18.80;99.90;;;;;;6247440;28;20052;-59
2022/06/06 06:16:33;;;;;;;5.60;4.47;;;18.90;99.90;;;;;;6245911;28;20409;-59
2022/06/06 06:19:40;;;;;;;6.22;4.63;;;18.70;99.90;;;;;;6246869;28;20489;-59
2022/06/06 06:22:46;;;;;;;5.80;4.32;;;18.70;99.90;;;;;;6235007;28;20057;-59
2022/06/06 06:25:49;;;;;;;6.85;4.35;;;18.70;99.90;;;;;;6247169;28;20056;-59
2022/06/06 06:28:51;;;;;;;8.15;5.13;;;18.70;99.90;;;;;;6223763;28;20439;-60
2022/06/06 06:32:11;;;;;;;10.32;6.63;;;18.70;99.90;;;;;;6221612;28;20046;-59
2022/06/06 06:35:21;;;;;;;6.15;5.13;;;18.90;99.90;;;;;;6222407;28;20045;-59
2022/06/06 06:38:38;;;;;;;8.20;5.82;;;18.80;99.90;;;;;;6222539;28;20069;-58
2022/06/06 06:41:52;;;;;;;8.88;5.88;;;18.70;99.90;;;;;;6222361;28;20487;-60
2022/06/06 06:44:59;;;;;;;7.40;5.65;;;18.60;99.90;;;;;;6223065;28;20049;-59
2022/06/06 06:48:10;;;;;;;6.30;4.00;;;18.60;99.90;;;;;;6221100;28;20054;-59
2022/06/06 06:51:18;;;;;;;6.13;4.45;;;18.60;99.90;;;;;;6222414;28;20046;-60
2022/06/06 06:54:42;;;;;;;7.93;4.38;;;18.70;99.90;;;;;;6241572;28;20273;-59
2022/06/06 06:58:18;;;;;;;6.68;4.80;;;18.60;99.90;;;;;;6246227;28;20057;-59
2022/06/06 07:01:31;;;;;;;8.80;5.13;;;18.70;99.90;;;;;;6246065;28;20482;-59
2022/06/06 07:11:44;;;;;;;8.10;5.03;;;18.60;99.90;;;;;;6247032;28;20053;-59
2022/06/06 07:15:08;;;;;;;4.65;3.60;;;18.50;99.90;;;;;;6246340;28;20057;-59
2022/06/06 07:18:11;;;;;;;;;;;18.40;99.90;;;;;;6244858;28;20054;-59
2022/06/06 07:21:17;;;;;;;6.00;4.72;;;18.50;99.90;;;;;;6245457;28;19968;-60
2022/06/06 07:24:23;;;;;;;7.43;5.07;;;18.40;99.90;;;;;;6230058;28;20056;-59
2022/06/06 07:27:25;;;;;;;6.68;4.45;;;18.50;99.90;;;;;;6227790;28;20049;-60
2022/06/06 07:30:30;;;;;;;8.77;4.88;;;18.40;99.90;;;;;;6250022;28;20045;-59
2022/06/06 07:33:50;;;;;;;4.80;3.75;;;18.50;99.90;;;;;;6249992;28;20052;-58
2022/06/06 07:37:07;;;;;;;8.18;5.80;;;18.60;99.90;;;;;;6250366;28;20493;-60
2022/06/06 07:40:16;;;;;;;4.75;3.53;;;18.80;99.90;;;;;;6248376;28;20056;-59
2022/06/06 07:43:45;;;;;;;5.97;4.30;;;19.00;99.90;;;;;;6249436;28;20053;-59
2022/06/06 07:46:57;;;;;;;4.55;3.35;;;19.40;99.90;;;;;;6249781;28;20061;-60
2022/06/06 07:50:03;;;;;;;6.65;3.53;;;19.70;99.90;;;;;;6249457;28;20060;-59
2022/06/06 07:53:13;;;;;;;6.22;4.10;;;20.00;99.90;;;;;;6242777;28;20056;-59
2022/06/06 07:56:24;;;;;;;4.53;3.45;;;20.20;99.90;;;;;;6250288;28;20140;-59
2022/06/06 07:59:37;;;;;;;4.93;3.65;;;20.40;99.90;;;;;;6248713;28;20060;-59
2022/06/06 08:02:50;;;;;;;5.63;3.90;;;20.30;99.90;;;;;;6250147;28;20046;-59
2022/06/06 08:06:31;;;;;;;4.57;3.70;;;20.20;99.90;;;;;;6249245;28;20508;-59
2022/06/06 08:10:11;;;;;;;7.07;4.65;;;20.00;99.90;;;;;;6199797;28;20371;-58
2022/06/06 08:13:29;;;;;;;8.35;4.85;;;20.00;99.90;;;;;;6246823;28;20060;-59
2022/06/06 08:16:38;;;;;;;5.00;3.50;;;19.90;99.90;;;;;;6250009;28;20053;-59
2022/06/06 08:19:51;;;;;;;4.68;3.55;;;19.90;99.90;;;;;;6247774;28;20056;-60
2022/06/06 08:22:53;;;;;;;5.43;3.95;;;20.00;99.90;;;;;;6244317;28;20386;-59
2022/06/06 08:25:57;;;;;;;7.28;3.30;;;20.00;99.90;;;;;;6232123;28;20045;-59
2022/06/06 08:29:01;;;;;;;5.55;3.28;;;20.00;99.90;;;;;;6248177;28;20050;-59
2022/06/06 08:32:05;;;;;;;3.20;2.80;;;20.10;99.90;;;;;;6249540;28;20057;-59
2022/06/06 08:35:07;;;;;;;3.58;2.72;;;20.10;99.90;;;;;;6248688;28;20091;-59
2022/06/06 08:38:25;;;;;;;6.85;4.57;;;20.10;99.90;;;;;;6248080;28;20072;-59
2022/06/06 08:42:10;;;;;;;6.07;3.65;;;20.20;99.90;;;;;;6249447;28;20049;-59
2022/06/06 08:45:22;;;;;;;7.45;4.88;;;20.50;99.90;;;;;;6225153;28;20121;-58
2022/06/06 08:48:41;;;;;;;4.70;3.13;;;20.80;99.90;;;;;;6224711;28;20054;-59
2022/06/06 08:51:50;;;;;;;5.18;3.38;;;20.90;99.90;;;;;;6224428;28;20136;-59
2022/06/06 08:55:16;;;;;;;6.72;3.35;;;20.90;99.90;;;;;;6231535;28;20054;-60
2022/06/06 08:58:51;;;;;;;5.10;3.72;;;20.90;99.90;;;;;;6246803;28;20144;-60
2022/06/06 09:02:09;;;;;;;6.80;4.00;;;20.80;99.90;;;;;;6244949;28;20179;-60
2022/06/06 09:05:54;;;;;;;5.43;3.67;;;20.70;99.90;;;;;;6248871;28;20109;-59
2022/06/06 09:09:40;;;;;;;3.83;2.95;;;20.60;99.90;;;;;;6248670;28;20049;-60
2022/06/06 09:13:15;;;;;;;5.57;3.97;;;20.50;99.90;;;;;;6247394;28;20052;-59
2022/06/06 09:16:49;;;;;;;4.43;3.30;;;20.60;99.90;;;;;;6246017;28;20136;-59
2022/06/06 09:20:25;;;;;;;7.32;4.13;;;20.50;99.90;;;;;;6247609;28;20045;-58
2022/06/06 09:24:05;;;;;;;4.72;2.50;;;20.50;99.90;;;;;;6243633;28;20520;-59
2022/06/06 09:27:42;;;;;;;6.30;3.72;;;20.80;99.90;;;;;;6246826;28;20061;-59
2022/06/06 09:31:25;;;;;;;7.78;3.50;;;20.80;99.90;;;;;;6248571;28;20089;-59
2022/06/06 09:35:00;;;;;;;4.88;3.40;;;20.80;99.90;;;;;;6231791;28;20056;-59
2022/06/06 09:38:20;;;;;;;5.55;3.17;;;20.90;99.90;;;;;;6248109;28;20052;-59
2022/06/06 09:41:37;;;;;;;3.17;2.40;;;21.00;99.90;;;;;;6248236;28;20053;-60
2022/06/06 09:45:23;;;;;;;5.50;2.53;;;20.90;99.90;;;;;;6247941;28;20060;-59
2022/06/06 09:49:08;;;;;;;2.88;2.58;;;20.90;99.90;;;;;;6247544;28;20083;-59
2022/06/06 09:52:47;;;;;;;5.85;2.30;;;21.00;99.90;;;;;;6246666;28;20057;-59
2022/06/06 10:00:17;;;;;;;3.00;2.20;;;20.90;99.90;;;;;;6247265;28;20509;-59
2022/06/06 10:03:55;;;;;;;4.65;2.50;;;21.00;99.90;;;;;;6243783;28;20088;-59
2022/06/06 10:07:29;;;;;;;4.05;2.28;;;21.10;99.90;;;;;;6226616;28;20409;-59
2022/06/06 10:10:54;;;;;;;3.95;2.22;;;21.20;99.90;;;;;;6246514;28;20045;-59
2022/06/06 10:14:22;;;;;;;4.50;2.00;;;21.20;99.90;;;;;;6247345;28;20050;-59
2022/06/06 10:17:40;;;;;;;3.40;1.60;;;21.20;99.90;;;;;;6247533;28;20046;-60
2022/06/06 10:21:09;;;;;;;1.92;1.55;;;21.10;99.90;;;;;;6245374;28;20045;-59
2022/06/06 10:24:27;;;;;;;3.35;1.73;;;21.00;99.90;;;;;;6235682;28;20045;-59
2022/06/06 10:27:51;;;;;;;3.55;1.83;;;21.00;99.90;;;;;;6221311;28;20188;-60
2022/06/06 10:31:07;;;;;;;4.22;1.75;;;20.80;99.90;;;;;;6221734;28;20054;-59
2022/06/06 10:34:32;;;;;;;3.22;1.90;;;20.60;99.90;;;;;;6221388;28;20069;-59
2022/06/06 10:38:08;;;;;;;3.10;1.92;;;20.60;99.90;;;;;;6221599;28;20204;-59
2022/06/06 10:41:28;;;;;;;3.90;1.58;;;20.80;99.90;;;;;;6223788;28;20129;-60
2022/06/06 10:44:43;;;;;;;5.00;2.35;;;20.90;99.90;;;;;;6245457;28;20045;-59
2022/06/06 10:48:23;;;;;;;3.97;1.70;;;20.90;99.90;;;;;;6245553;28;20501;-59
2022/06/06 10:51:54;;;;;;;3.40;2.00;;;20.70;99.90;;;;;;6246796;28;20056;-59
2022/06/06 10:55:24;;;;;;;3.50;1.70;;;20.70;99.90;;;;;;6223910;28;20052;-59
2022/06/06 10:58:58;;;;;;;2.45;1.50;;;20.80;99.90;;;;;;6244227;28;20064;-59
2022/06/06 11:02:31;;;;;;;3.72;1.83;;;20.90;99.90;;;;;;6245517;28;20128;-60
2022/06/06 11:06:08;;;;;;;5.43;2.30;;;20.80;99.90;;;;;;6249767;28;20568;-59
2022/06/06 11:09:34;;;;;;;3.95;1.98;;;20.20;99.90;;;;;;6250308;28;20132;-59
2022/06/06 11:13:11;;;;;;;3.97;1.77;;;19.90;99.90;;;;;;6251435;28;20057;-60
2022/06/06 11:16:44;;;;;;;7.22;1.85;;;19.90;99.90;;;;;;6250582;28;20513;-60
2022/06/06 11:20:20;;;;;;;5.13;1.88;;;20.10;99.90;;;;;;6224401;28;20052;-59
2022/06/06 11:23:28;;;;;;;3.28;2.10;;;20.40;99.90;;;;;;6251619;28;20064;-60
2022/06/06 11:27:05;;;;;;;3.22;1.67;;;20.60;99.90;;;;;;6249945;28;20393;-60
2022/06/06 11:30:31;;;;;;;5.10;1.27;;;20.80;99.90;;;;;;6250899;28;20049;-59
2022/06/06 11:34:17;;;;;;;3.80;1.60;;;20.80;99.90;;;;;;6237624;28;20054;-59
2022/06/06 11:38:03;;;;;;;2.65;1.70;;;20.90;99.90;;;;;;6211556;28;20077;-59
2022/06/06 11:41:18;;;;;;;2.58;1.40;;;20.90;99.90;;;;;;6224842;28;20057;-59
2022/06/06 11:44:54;;;;;;;2.88;1.20;;;20.90;99.90;;;;;;6226775;28;20500;-59
2022/06/06 11:48:19;;;;;;;4.18;1.60;;;20.90;99.90;;;;;;6226515;28;20183;-60
2022/06/06 11:51:59;;;;;;;2.25;1.27;;;20.70;99.90;;;;;;6226830;28;20057;-59
2022/06/06 11:55:24;;;;;;;2.95;1.30;;;20.60;99.90;;;;;;6224913;28;20191;-58
2022/06/06 11:59:02;;;;;;;1.65;0.90;;;20.50;99.90;;;;;;6245066;28;20057;-59
2022/06/06 12:02:58;;;;;;;4.20;1.23;;;20.50;99.90;;;;;;6237865;28;20084;-59
2022/06/06 12:06:46;;;;;;;3.00;1.10;;;20.70;99.90;;;;;;6250164;28;20077;-59
2022/06/06 12:09:55;;;;;;;2.20;1.20;;;20.90;99.90;;;;;;6211724;28;20500;-59
2022/06/06 12:13:24;;;;;;;2.75;1.00;;;21.20;99.90;;;;;;6243260;28;20053;-59
2022/06/06 12:16:32;;;;;;;1.70;1.08;;;21.30;99.90;;;;;;6248117;28;20050;-59
2022/06/06 12:20:03;;;;;;;2.35;1.15;;;21.30;99.90;;;;;;6249960;28;20413;-60
2022/06/06 12:23:20;;;;;;;0.85;0.80;;;21.30;99.90;;;;;;6248273;28;20056;-59
2022/06/06 12:26:38;;;;;;;0.85;0.82;;;21.50;99.90;;;;;;6243326;28;20049;-59
2022/06/06 12:30:04;;;;;;;2.05;0.80;;;21.50;99.90;;;;;;6248683;28;20062;-60
2022/06/06 12:33:10;;;;;;;1.42;0.93;;;21.60;99.90;;;;;;6249927;28;20056;-59
2022/06/06 12:36:20;;;;;;;1.25;0.90;;;21.70;99.90;;;;;;6249812;28;20060;-60
2022/06/06 12:39:34;;;;;;;1.83;1.00;;;21.70;99.90;;;;;;6249415;28;20072;-60
2022/06/06 12:42:51;;;;;;;2.05;0.90;;;21.70;99.90;;;;;;6228574;28;20046;-59
2022/06/06 12:46:12;;;;;;;1.40;0.82;;;21.70;99.90;;;;;;6224804;28;20064;-59
2022/06/06 12:49:36;;;;;;;2.30;1.00;;;21.50;99.90;;;;;;6224998;28;20050;-60
2022/06/06 12:53:13;;;;;;;1.38;0.88;;;21.30;99.90;;;;;;6224352;28;20046;-59
2022/06/06 12:56:25;;;;;;;1.35;0.88;;;21.10;99.90;;;;;;6224511;28;20052;-59
2022/06/06 12:59:48;;;;;;;1.52;0.70;;;21.00;99.90;;;;;;6242142;28;20204;-59
2022/06/06 13:03:07;;;;;;;0.93;0.70;;;21.10;99.90;;;;;;6248253;28;20509;-59
2022/06/06 13:06:23;;;;;;;1.88;1.00;;;21.20;99.90;;;;;;6248894;28;20145;-59
2022/06/06 13:09:51;;;;;;;2.05;0.90;;;21.20;99.90;;;;;;6247894;28;20405;-59
2022/06/06 13:13:16;;;;;;;1.92;0.82;;;21.30;99.90;;;;;;6248544;28;20049;-60
2022/06/06 13:16:32;;;;;;;3.80;0.95;;;21.40;99.90;;;;;;6230039;28;20042;-59
2022/06/06 13:19:52;;;;;;;1.10;0.77;;;21.40;99.40;;;;;;6224000;28;20050;-59
2022/06/06 13:23:15;;;;;;;1.13;0.65;;;21.30;98.40;;;;;;6226596;28;20509;-59
2022/06/06 13:26:33;;;;;;;2.67;0.80;;;21.20;99.70;;;;;;6247376;28;20045;-59
2022/06/06 13:29:37;;;;;;;1.45;0.65;;;21.10;99.40;;;;;;6248103;28;20045;-59
2022/06/06 13:32:50;;;;;;;1.95;0.80;;;21.10;99.90;;;;;;6235310;28;20061;-59
2022/06/06 13:36:03;;;;;;;1.83;0.80;;;21.20;99.80;;;;;;6222268;28;20498;-59
2022/06/06 13:39:18;;;;;;;2.25;1.13;;;21.10;99.80;;;;;;6223882;28;20046;-59
2022/06/06 13:42:35;;;;;;;4.15;1.15;;;21.10;99.40;;;;;;6224680;28;20049;-59
2022/06/06 13:45:46;;;;;;;2.92;0.90;;;20.90;99.40;;;;;;6223375;28;20490;-59
2022/06/06 13:49:06;;;;;;;3.67;0.95;;;20.80;99.40;;;;;;6228808;28;20057;-59
2022/06/06 13:52:24;;;;;;;2.25;0.70;;;20.90;98.90;;;;;;6247440;28;20129;-59
2022/06/06 13:55:29;;;;;;;2.05;0.90;;;20.90;99.90;;;;;;6246417;28;20060;-59
2022/06/06 13:58:44;;;;;;;7.53;5.20;;;20.90;99.90;;;;;;6225882;28;20069;-59
2022/06/06 14:01:53;;;;;;;2.85;1.20;;;20.90;99.90;;;;;;6221869;28;20046;-58
2022/06/06 14:05:13;;;;;;;3.92;1.00;;;20.80;99.90;;;;;;6223447;28;20057;-60
2022/06/06 14:08:18;;;;;;;2.70;1.05;;;20.80;99.90;;;;;;6221786;28;20166;-59
2022/06/06 14:11:48;;;;;;;1.52;1.05;;;20.90;99.90;;;;;;6237802;28;20091;-59
2022/06/06 14:14:58;;;;;;;3.72;1.52;;;20.80;99.90;;;;;;6245932;28;20504;-60
2022/06/06 14:18:06;;;;;;;1.15;1.00;;;20.80;99.90;;;;;;6247223;28;20072;-61
2022/06/06 14:21:08;;;;;;;3.92;1.00;;;20.70;99.90;;;;;;6247506;28;20123;-58
2022/06/06 14:24:15;;;;;;;1.38;1.00;;;20.80;99.90;;;;;;6223488;28;20406;-59
2022/06/06 14:27:21;;;;;;;3.08;1.08;;;20.80;99.90;;;;;;6231982;28;20041;-59
2022/06/06 14:30:31;;;;;;;3.38;1.42;;;20.80;99.90;;;;;;6247043;28;20058;-59
2022/06/06 14:33:35;;;;;;;1.13;0.90;;;20.70;99.90;;;;;;6247117;28;20057;-60
2022/06/06 14:36:37;;;;;;;3.97;1.02;;;20.60;99.90;;;;;;6246847;28;20180;-59
2022/06/06 14:39:44;;;;;;;1.67;1.10;;;20.40;99.90;;;;;;6240603;28;20057;-60
2022/06/06 14:42:52;;;;;;;1.88;0.95;;;20.20;99.90;;;;;;6222684;28;20046;-60
2022/06/06 14:45:58;;;;;;;1.65;1.20;;;20.20;99.90;;;;;;6222684;28;20054;-60
2022/06/06 14:49:01;;;;;;;2.92;1.30;;;20.00;99.90;;;;;;6222447;28;20129;-59
2022/06/06 14:52:13;;;;;;;2.28;1.58;;;19.90;99.90;;;;;;6234917;28;20056;-59
2022/06/06 14:55:21;;;;;;;4.95;1.15;;;19.60;99.90;;;;;;6246420;28;20049;-60
2022/06/06 14:58:27;;;;;;;4.20;1.90;;;19.50;99.90;;;;;;6245494;28;20064;-59
2022/06/06 15:01:31;;;;;;;3.00;2.25;;;19.40;99.90;;;;;;6246427;28;20046;-59
2022/06/06 15:04:34;;;;;;;;;;;19.20;99.90;;;;;;6245906;28;20056;-59
2022/06/06 15:07:41;;;;;;;2.78;2.17;;;18.80;99.90;;;;;;6246396;28;20008;-59
2022/06/06 15:10:49;;;;;;;5.03;4.10;;;18.80;99.90;;;;;;6243053;28;20056;-59
2022/06/06 15:13:55;;;;;;;3.10;2.78;;;18.70;99.90;;;;;;6239578;28;20054;-60
2022/06/06 15:16:58;;;;;;;3.78;2.85;;;18.50;99.90;;;;;;6220713;28;20042;-59
2022/06/06 15:20:01;;;;;;;;;;;18.30;99.90;;;;;;6222613;28;20045;-59
2022/06/06 15:23:11;;;;;;;3.47;2.45;;;18.10;99.90;;;;;;6222069;28;19968;-59
2022/06/06 15:26:21;;;;;;;4.10;2.30;;;17.90;99.90;;;;;;6222096;28;20078;-60
2022/06/06 15:29:27;;;;;;;3.63;2.25;;;17.90;99.90;;;;;;6246213;28;20053;-59
2022/06/06 15:32:38;;;;;;;6.32;3.40;;;17.80;99.90;;;;;;6226392;28;20042;-59
2022/06/06 15:35:57;;;;;;;3.08;2.35;;;17.60;99.90;;;;;;6221856;28;20054;-59
2022/06/06 15:39:09;;;;;;;3.63;3.00;;;17.70;99.90;;;;;;6220388;28;20050;-59
2022/06/06 15:42:26;;;;;;;5.95;3.58;;;17.60;99.90;;;;;;6221761;28;20061;-58
2022/06/06 15:45:43;;;;;;;3.15;1.98;;;17.70;99.90;;;;;;6220686;28;20045;-59
2022/06/06 15:48:50;;;;;;;5.82;3.15;;;17.90;99.90;;;;;;6221944;28;20533;-60
2022/06/06 15:51:57;;;;;;;3.22;1.60;;;18.00;99.90;;;;;;6232029;28;20059;-59
2022/06/06 15:55:06;;;;;;;2.55;2.10;;;17.90;99.90;;;;;;6250889;28;20053;-59
2022/06/06 15:58:22;;;;;;;3.53;2.60;;;18.10;99.90;;;;;;6250407;28;20490;-59
2022/06/06 16:01:33;;;;;;;3.22;1.90;;;18.10;99.90;;;;;;6225729;28;20080;-59
2022/06/06 16:04:38;;;;;;;3.90;2.83;;;18.20;99.90;;;;;;6226665;28;20049;-59
2022/06/06 16:07:47;;;;;;;2.28;1.60;;;18.40;99.90;;;;;;6225616;28;20073;-59
2022/06/06 16:10:58;;;;;;;2.80;1.52;;;18.70;99.90;;;;;;6236719;28;20045;-59
2022/06/06 16:14:12;;;;;;;2.08;1.35;;;18.70;99.90;;;;;;6248884;28;20525;-59
2022/06/06 16:17:19;;;;;;;;;;;18.90;99.90;;;;;;6250654;28;20501;-59
2022/06/06 16:20:28;;;;;;;2.30;0.90;;;18.80;99.90;;;;;;6249674;28;19928;-59
2022/06/06 16:23:36;;;;;;;1.92;1.20;;;18.80;99.90;;;;;;6248363;28;20049;-60
2022/06/06 16:26:42;;;;;;;1.52;0.85;;;18.80;99.90;;;;;;6245565;28;20072;-59
2022/06/06 16:29:52;;;;;;;1.90;0.70;;;18.80;99.90;;;;;;6225100;28;20057;-59
2022/06/06 16:33:16;;;;;;;1.55;0.90;;;18.70;99.90;;;;;;6225338;28;20136;-59
2022/06/06 16:36:58;;;;;;;1.40;0.85;;;18.60;99.90;;;;;;6225341;28;20052;-59
2022/06/06 16:40:00;;;;;;;0.80;0.43;;;18.60;99.90;;;;;;6224291;28;20046;-59
2022/06/06 16:50:01;;;;;;;1.13;0.90;;;18.30;99.90;;;;;;6248975;28;20498;-59
2022/06/06 16:53:18;;;;;;;1.50;0.90;;;18.40;99.90;;;;;;6249856;28;20049;-59
2022/06/06 16:56:34;;;;;;;0.90;0.57;;;18.50;99.90;;;;;;6238962;28;20052;-59
2022/06/06 16:59:53;;;;;;;0.98;0.47;;;18.50;99.90;;;;;;6223932;28;20061;-59
2022/06/06 17:02:58;;;;;;;1.08;0.70;;;18.30;99.90;;;;;;6223195;28;20141;-59
2022/06/06 17:10:03;;;;;;;1.90;0.88;;;18.00;99.90;;;;;;6224383;28;20133;-59
2022/06/06 17:13:21;;;;;;;1.75;0.57;;;18.10;99.90;;;;;;6232478;28;20050;-59
2022/06/06 17:16:47;;;;;;;1.17;0.77;;;18.30;99.90;;;;;;6247729;28;20432;-59
2022/06/06 17:20:11;;;;;;;1.05;0.82;;;18.30;99.90;;;;;;6248771;28;20132;-59
2022/06/06 17:23:23;;;;;;;2.47;0.65;;;18.40;99.90;;;;;;6247158;28;20150;-58
2022/06/06 17:26:39;;;;;;;1.67;0.63;;;18.40;99.90;;;;;;6249061;28;20041;-59